sensor_id;sensor_type;location;lat;lon;timestamp;P1;durP1;ratioP1;P2;durP2;ratioP2
34019;SDS011;20895;51.034;3.742;2022-11-15T00:02:14;23.58;;;18.70;;
34019;SDS011;20895;51.034;3.742;2022-11-15T00:04:39;23.75;;;19.42;;
34019;SDS011;20895;51.034;3.742;2022-11-15T00:07:05;22.77;;;17.55;;
34019;SDS011;20895;51.034;3.742;2022-11-15T00:09:30;24.92;;;18.48;;
34019;SDS011;20895;51.034;3.742;2022-11-15T00:11:55;21.60;;;17.52;;
34019;SDS011;20895;51.034;3.742;2022-11-15T00:14:20;21.98;;;17.20;;
34019;SDS011;20895;51.034;3.742;2022-11-15T00:16:46;21.08;;;16.30;;
34019;SDS011;20895;51.034;3.742;2022-11-15T00:19:11;23.40;;;17.42;;
34019;SDS011;20895;51.034;3.742;2022-11-15T00:21:36;22.45;;;16.65;;
34019;SDS011;20895;51.034;3.742;2022-11-15T00:24:01;21.67;;;16.00;;
34019;SDS011;20895;51.034;3.742;2022-11-15T00:26:26;20.17;;;15.38;;
34019;SDS011;20895;51.034;3.742;2022-11-15T00:28:52;22.42;;;17.10;;
34019;SDS011;20895;51.034;3.742;2022-11-15T00:31:17;18.75;;;15.82;;
34019;SDS011;20895;51.034;3.742;2022-11-15T00:33:43;20.45;;;16.23;;
34019;SDS011;20895;51.034;3.742;2022-11-15T00:36:09;21.20;;;15.35;;
34019;SDS011;20895;51.034;3.742;2022-11-15T00:38:36;20.73;;;16.15;;
34019;SDS011;20895;51.034;3.742;2022-11-15T00:41:02;18.98;;;15.73;;
34019;SDS011;20895;51.034;3.742;2022-11-15T00:43:28;18.45;;;15.45;;
34019;SDS011;20895;51.034;3.742;2022-11-15T00:45:53;19.25;;;15.52;;
34019;SDS011;20895;51.034;3.742;2022-11-15T00:48:18;19.02;;;15.52;;
34019;SDS011;20895;51.034;3.742;2022-11-15T00:50:44;21.83;;;16.98;;
34019;SDS011;20895;51.034;3.742;2022-11-15T00:53:09;19.90;;;16.35;;
34019;SDS011;20895;51.034;3.742;2022-11-15T00:55:34;19.00;;;15.25;;
34019;SDS011;20895;51.034;3.742;2022-11-15T00:57:59;20.77;;;14.75;;
34019;SDS011;20895;51.034;3.742;2022-11-15T01:00:25;21.55;;;17.13;;
34019;SDS011;20895;51.034;3.742;2022-11-15T01:02:50;23.42;;;17.42;;
34019;SDS011;20895;51.034;3.742;2022-11-15T01:05:15;21.60;;;15.93;;
34019;SDS011;20895;51.034;3.742;2022-11-15T01:07:41;17.67;;;15.68;;
34019;SDS011;20895;51.034;3.742;2022-11-15T01:10:06;21.02;;;16.50;;
34019;SDS011;20895;51.034;3.742;2022-11-15T01:12:32;22.13;;;17.00;;
34019;SDS011;20895;51.034;3.742;2022-11-15T01:14:57;22.38;;;16.60;;
34019;SDS011;20895;51.034;3.742;2022-11-15T01:17:22;20.10;;;16.17;;
34019;SDS011;20895;51.034;3.742;2022-11-15T01:19:48;18.63;;;14.75;;
34019;SDS011;20895;51.034;3.742;2022-11-15T01:22:13;22.67;;;16.67;;
34019;SDS011;20895;51.034;3.742;2022-11-15T01:24:38;17.50;;;14.68;;
34019;SDS011;20895;51.034;3.742;2022-11-15T01:27:04;20.88;;;16.65;;
34019;SDS011;20895;51.034;3.742;2022-11-15T01:29:29;21.80;;;15.70;;
34019;SDS011;20895;51.034;3.742;2022-11-15T01:31:54;19.58;;;15.63;;
34019;SDS011;20895;51.034;3.742;2022-11-15T01:34:19;17.02;;;13.82;;
34019;SDS011;20895;51.034;3.742;2022-11-15T01:36:45;20.70;;;15.02;;
34019;SDS011;20895;51.034;3.742;2022-11-15T01:39:10;18.77;;;15.57;;
34019;SDS011;20895;51.034;3.742;2022-11-15T01:41:35;17.30;;;15.43;;
34019;SDS011;20895;51.034;3.742;2022-11-15T01:46:45;17.10;;;13.32;;
34019;SDS011;20895;51.034;3.742;2022-11-15T01:49:12;20.10;;;14.68;;
34019;SDS011;20895;51.034;3.742;2022-11-15T01:51:38;18.45;;;12.65;;
34019;SDS011;20895;51.034;3.742;2022-11-15T01:54:07;16.50;;;12.02;;
34019;SDS011;20895;51.034;3.742;2022-11-15T01:56:39;15.63;;;11.88;;
34019;SDS011;20895;51.034;3.742;2022-11-15T01:59:06;22.88;;;12.93;;
34019;SDS011;20895;51.034;3.742;2022-11-15T02:01:32;26.63;;;14.75;;
34019;SDS011;20895;51.034;3.742;2022-11-15T02:04:04;17.92;;;11.02;;
34019;SDS011;20895;51.034;3.742;2022-11-15T02:08:57;17.75;;;11.82;;
34019;SDS011;20895;51.034;3.742;2022-11-15T02:11:23;20.42;;;11.20;;
34019;SDS011;20895;51.034;3.742;2022-11-15T02:13:48;16.95;;;11.70;;
34019;SDS011;20895;51.034;3.742;2022-11-15T02:21:37;13.07;;;10.00;;
34019;SDS011;20895;51.034;3.742;2022-11-15T02:24:11;16.75;;;10.80;;
34019;SDS011;20895;51.034;3.742;2022-11-15T02:29:11;16.52;;;10.60;;
34019;SDS011;20895;51.034;3.742;2022-11-15T02:37:06;13.73;;;8.98;;
34019;SDS011;20895;51.034;3.742;2022-11-15T02:39:40;11.50;;;8.15;;
34019;SDS011;20895;51.034;3.742;2022-11-15T02:42:11;15.30;;;10.60;;
34019;SDS011;20895;51.034;3.742;2022-11-15T02:44:57;16.85;;;10.23;;
34019;SDS011;20895;51.034;3.742;2022-11-15T02:47:24;10.82;;;8.93;;
34019;SDS011;20895;51.034;3.742;2022-11-15T02:49:52;13.18;;;8.82;;
34019;SDS011;20895;51.034;3.742;2022-11-15T02:52:19;12.57;;;7.85;;
34019;SDS011;20895;51.034;3.742;2022-11-15T02:54:57;15.25;;;7.97;;
34019;SDS011;20895;51.034;3.742;2022-11-15T02:57:29;11.65;;;7.07;;
34019;SDS011;20895;51.034;3.742;2022-11-15T03:00:01;14.68;;;7.90;;
34019;SDS011;20895;51.034;3.742;2022-11-15T03:12:34;12.80;;;7.57;;
34019;SDS011;20895;51.034;3.742;2022-11-15T03:15:01;14.95;;;7.70;;
34019;SDS011;20895;51.034;3.742;2022-11-15T03:17:52;16.27;;;8.50;;
34019;SDS011;20895;51.034;3.742;2022-11-15T03:20:15;13.65;;;6.97;;
34019;SDS011;20895;51.034;3.742;2022-11-15T03:22:42;12.45;;;6.50;;
34019;SDS011;20895;51.034;3.742;2022-11-15T03:25:08;13.50;;;6.78;;
34019;SDS011;20895;51.034;3.742;2022-11-15T03:27:37;14.38;;;7.38;;
34019;SDS011;20895;51.034;3.742;2022-11-15T03:30:04;14.05;;;7.10;;
34019;SDS011;20895;51.034;3.742;2022-11-15T03:32:41;16.48;;;6.05;;
34019;SDS011;20895;51.034;3.742;2022-11-15T03:35:08;22.40;;;8.70;;
34019;SDS011;20895;51.034;3.742;2022-11-15T03:37:44;12.75;;;6.22;;
34019;SDS011;20895;51.034;3.742;2022-11-15T03:40:10;15.38;;;6.70;;
34019;SDS011;20895;51.034;3.742;2022-11-15T03:42:42;11.48;;;6.28;;
34019;SDS011;20895;51.034;3.742;2022-11-15T03:45:16;18.67;;;6.15;;
34019;SDS011;20895;51.034;3.742;2022-11-15T03:47:48;10.82;;;6.53;;
34019;SDS011;20895;51.034;3.742;2022-11-15T03:50:18;13.50;;;6.65;;
34019;SDS011;20895;51.034;3.742;2022-11-15T03:52:44;9.82;;;5.60;;
34019;SDS011;20895;51.034;3.742;2022-11-15T03:55:11;10.13;;;5.80;;
34019;SDS011;20895;51.034;3.742;2022-11-15T03:57:38;11.20;;;5.88;;
34019;SDS011;20895;51.034;3.742;2022-11-15T04:00:03;9.38;;;5.78;;
34019;SDS011;20895;51.034;3.742;2022-11-15T04:02:29;10.20;;;5.75;;
34019;SDS011;20895;51.034;3.742;2022-11-15T04:04:54;11.23;;;5.70;;
34019;SDS011;20895;51.034;3.742;2022-11-15T04:07:20;14.30;;;7.20;;
34019;SDS011;20895;51.034;3.742;2022-11-15T04:09:45;11.77;;;5.60;;
34019;SDS011;20895;51.034;3.742;2022-11-15T04:12:39;13.98;;;6.80;;
34019;SDS011;20895;51.034;3.742;2022-11-15T04:15:09;10.57;;;5.72;;
34019;SDS011;20895;51.034;3.742;2022-11-15T04:17:36;10.15;;;5.20;;
34019;SDS011;20895;51.034;3.742;2022-11-15T04:20:05;12.70;;;5.57;;
34019;SDS011;20895;51.034;3.742;2022-11-15T04:22:52;9.10;;;5.40;;
34019;SDS011;20895;51.034;3.742;2022-11-15T04:25:35;10.35;;;6.20;;
34019;SDS011;20895;51.034;3.742;2022-11-15T04:28:01;13.32;;;5.68;;
34019;SDS011;20895;51.034;3.742;2022-11-15T04:30:26;8.98;;;6.30;;
34019;SDS011;20895;51.034;3.742;2022-11-15T04:32:51;12.88;;;7.18;;
34019;SDS011;20895;51.034;3.742;2022-11-15T04:35:16;14.80;;;5.38;;
34019;SDS011;20895;51.034;3.742;2022-11-15T04:37:42;12.32;;;5.22;;
34019;SDS011;20895;51.034;3.742;2022-11-15T04:40:07;12.60;;;5.35;;
34019;SDS011;20895;51.034;3.742;2022-11-15T04:42:32;10.50;;;5.53;;
34019;SDS011;20895;51.034;3.742;2022-11-15T04:44:58;9.10;;;4.82;;
34019;SDS011;20895;51.034;3.742;2022-11-15T04:47:23;11.75;;;5.22;;
34019;SDS011;20895;51.034;3.742;2022-11-15T04:49:48;11.30;;;5.00;;
34019;SDS011;20895;51.034;3.742;2022-11-15T04:52:13;8.52;;;5.05;;
34019;SDS011;20895;51.034;3.742;2022-11-15T04:54:39;9.32;;;4.75;;
34019;SDS011;20895;51.034;3.742;2022-11-15T04:57:04;11.73;;;4.63;;
34019;SDS011;20895;51.034;3.742;2022-11-15T04:59:29;9.43;;;4.93;;
34019;SDS011;20895;51.034;3.742;2022-11-15T05:01:54;9.23;;;4.65;;
34019;SDS011;20895;51.034;3.742;2022-11-15T05:04:20;12.05;;;5.30;;
34019;SDS011;20895;51.034;3.742;2022-11-15T05:06:48;9.40;;;4.85;;
34019;SDS011;20895;51.034;3.742;2022-11-15T05:09:14;11.07;;;5.25;;
34019;SDS011;20895;51.034;3.742;2022-11-15T05:11:40;12.90;;;4.93;;
34019;SDS011;20895;51.034;3.742;2022-11-15T05:14:06;15.27;;;6.15;;
34019;SDS011;20895;51.034;3.742;2022-11-15T05:16:31;10.98;;;5.78;;
34019;SDS011;20895;51.034;3.742;2022-11-15T05:18:56;9.77;;;5.40;;
34019;SDS011;20895;51.034;3.742;2022-11-15T05:21:22;11.90;;;5.47;;
34019;SDS011;20895;51.034;3.742;2022-11-15T05:23:47;12.60;;;5.55;;
34019;SDS011;20895;51.034;3.742;2022-11-15T05:26:12;17.23;;;8.85;;
34019;SDS011;20895;51.034;3.742;2022-11-15T05:28:39;14.88;;;6.13;;
34019;SDS011;20895;51.034;3.742;2022-11-15T05:31:05;12.60;;;6.07;;
34019;SDS011;20895;51.034;3.742;2022-11-15T05:33:31;10.48;;;5.93;;
34019;SDS011;20895;51.034;3.742;2022-11-15T05:36:00;12.55;;;5.40;;
34019;SDS011;20895;51.034;3.742;2022-11-15T05:38:27;8.80;;;5.18;;
34019;SDS011;20895;51.034;3.742;2022-11-15T05:40:53;11.38;;;5.65;;
34019;SDS011;20895;51.034;3.742;2022-11-15T05:43:18;10.35;;;5.00;;
34019;SDS011;20895;51.034;3.742;2022-11-15T05:45:44;8.55;;;4.95;;
34019;SDS011;20895;51.034;3.742;2022-11-15T05:48:09;10.32;;;4.95;;
34019;SDS011;20895;51.034;3.742;2022-11-15T05:50:35;10.18;;;5.07;;
34019;SDS011;20895;51.034;3.742;2022-11-15T05:53:01;12.23;;;5.07;;
34019;SDS011;20895;51.034;3.742;2022-11-15T05:55:27;15.27;;;5.38;;
34019;SDS011;20895;51.034;3.742;2022-11-15T05:57:52;9.77;;;5.07;;
34019;SDS011;20895;51.034;3.742;2022-11-15T06:00:18;11.43;;;5.18;;
34019;SDS011;20895;51.034;3.742;2022-11-15T06:02:43;9.40;;;5.10;;
34019;SDS011;20895;51.034;3.742;2022-11-15T06:05:08;10.48;;;4.78;;
34019;SDS011;20895;51.034;3.742;2022-11-15T06:07:34;12.93;;;4.90;;
34019;SDS011;20895;51.034;3.742;2022-11-15T06:09:59;10.13;;;6.28;;
34019;SDS011;20895;51.034;3.742;2022-11-15T06:12:24;9.25;;;5.50;;
34019;SDS011;20895;51.034;3.742;2022-11-15T06:14:49;10.30;;;5.35;;
34019;SDS011;20895;51.034;3.742;2022-11-15T06:17:15;13.93;;;6.40;;
34019;SDS011;20895;51.034;3.742;2022-11-15T06:19:40;8.90;;;5.63;;
34019;SDS011;20895;51.034;3.742;2022-11-15T06:22:05;8.23;;;5.60;;
34019;SDS011;20895;51.034;3.742;2022-11-15T06:24:30;13.45;;;6.55;;
34019;SDS011;20895;51.034;3.742;2022-11-15T06:26:56;12.40;;;6.72;;
34019;SDS011;20895;51.034;3.742;2022-11-15T06:29:22;10.25;;;6.25;;
34019;SDS011;20895;51.034;3.742;2022-11-15T06:31:47;8.80;;;6.90;;
34019;SDS011;20895;51.034;3.742;2022-11-15T06:34:12;13.40;;;7.57;;
34019;SDS011;20895;51.034;3.742;2022-11-15T06:36:38;10.32;;;6.72;;
34019;SDS011;20895;51.034;3.742;2022-11-15T06:39:03;10.18;;;7.32;;
34019;SDS011;20895;51.034;3.742;2022-11-15T06:41:29;14.55;;;7.18;;
34019;SDS011;20895;51.034;3.742;2022-11-15T06:43:54;11.02;;;7.72;;
34019;SDS011;20895;51.034;3.742;2022-11-15T06:46:19;13.10;;;8.23;;
34019;SDS011;20895;51.034;3.742;2022-11-15T06:48:45;15.38;;;9.02;;
34019;SDS011;20895;51.034;3.742;2022-11-15T06:51:10;13.07;;;9.13;;
34019;SDS011;20895;51.034;3.742;2022-11-15T06:53:35;12.98;;;8.43;;
34019;SDS011;20895;51.034;3.742;2022-11-15T06:56:01;9.13;;;7.10;;
34019;SDS011;20895;51.034;3.742;2022-11-15T06:58:27;8.90;;;6.45;;
34019;SDS011;20895;51.034;3.742;2022-11-15T07:00:52;9.88;;;6.32;;
34019;SDS011;20895;51.034;3.742;2022-11-15T07:03:17;9.32;;;6.53;;
34019;SDS011;20895;51.034;3.742;2022-11-15T07:05:50;10.07;;;6.10;;
34019;SDS011;20895;51.034;3.742;2022-11-15T07:08:15;12.93;;;6.80;;
34019;SDS011;20895;51.034;3.742;2022-11-15T07:10:40;10.93;;;8.35;;
34019;SDS011;20895;51.034;3.742;2022-11-15T07:13:05;9.65;;;6.50;;
34019;SDS011;20895;51.034;3.742;2022-11-15T07:15:31;10.13;;;6.15;;
34019;SDS011;20895;51.034;3.742;2022-11-15T07:17:59;11.25;;;6.50;;
34019;SDS011;20895;51.034;3.742;2022-11-15T07:20:25;7.93;;;5.43;;
34019;SDS011;20895;51.034;3.742;2022-11-15T07:22:50;10.88;;;6.15;;
34019;SDS011;20895;51.034;3.742;2022-11-15T07:25:15;9.35;;;6.70;;
34019;SDS011;20895;51.034;3.742;2022-11-15T07:27:41;7.72;;;5.10;;
34019;SDS011;20895;51.034;3.742;2022-11-15T07:30:06;10.85;;;5.88;;
34019;SDS011;20895;51.034;3.742;2022-11-15T07:32:32;9.52;;;6.07;;
34019;SDS011;20895;51.034;3.742;2022-11-15T07:34:57;6.30;;;4.78;;
34019;SDS011;20895;51.034;3.742;2022-11-15T07:37:22;12.63;;;6.07;;
34019;SDS011;20895;51.034;3.742;2022-11-15T07:39:47;7.45;;;5.55;;
34019;SDS011;20895;51.034;3.742;2022-11-15T07:42:13;7.80;;;5.75;;
34019;SDS011;20895;51.034;3.742;2022-11-15T07:44:57;11.20;;;5.30;;
34019;SDS011;20895;51.034;3.742;2022-11-15T07:47:22;12.43;;;5.90;;
34019;SDS011;20895;51.034;3.742;2022-11-15T07:49:47;8.70;;;5.90;;
34019;SDS011;20895;51.034;3.742;2022-11-15T07:52:13;9.60;;;5.40;;
34019;SDS011;20895;51.034;3.742;2022-11-15T07:54:38;10.85;;;5.05;;
34019;SDS011;20895;51.034;3.742;2022-11-15T07:57:04;7.65;;;5.43;;
34019;SDS011;20895;51.034;3.742;2022-11-15T07:59:29;11.32;;;5.57;;
34019;SDS011;20895;51.034;3.742;2022-11-15T08:01:54;19.52;;;7.13;;
34019;SDS011;20895;51.034;3.742;2022-11-15T08:04:20;11.23;;;5.43;;
34019;SDS011;20895;51.034;3.742;2022-11-15T08:06:45;11.23;;;5.03;;
34019;SDS011;20895;51.034;3.742;2022-11-15T08:09:10;9.18;;;4.40;;
34019;SDS011;20895;51.034;3.742;2022-11-15T08:11:36;10.02;;;4.75;;
34019;SDS011;20895;51.034;3.742;2022-11-15T08:14:01;7.95;;;4.63;;
34019;SDS011;20895;51.034;3.742;2022-11-15T08:16:26;6.65;;;4.03;;
34019;SDS011;20895;51.034;3.742;2022-11-15T08:18:51;7.32;;;4.15;;
34019;SDS011;20895;51.034;3.742;2022-11-15T08:21:18;7.75;;;3.95;;
34019;SDS011;20895;51.034;3.742;2022-11-15T08:23:43;7.75;;;4.50;;
34019;SDS011;20895;51.034;3.742;2022-11-15T08:26:09;8.52;;;4.15;;
34019;SDS011;20895;51.034;3.742;2022-11-15T08:28:34;10.45;;;4.20;;
34019;SDS011;20895;51.034;3.742;2022-11-15T08:30:59;9.40;;;3.97;;
34019;SDS011;20895;51.034;3.742;2022-11-15T08:33:25;9.95;;;3.38;;
34019;SDS011;20895;51.034;3.742;2022-11-15T08:35:50;9.27;;;4.03;;
34019;SDS011;20895;51.034;3.742;2022-11-15T08:38:15;6.00;;;3.35;;
34019;SDS011;20895;51.034;3.742;2022-11-15T08:40:40;6.15;;;3.00;;
34019;SDS011;20895;51.034;3.742;2022-11-15T08:43:06;10.15;;;2.85;;
34019;SDS011;20895;51.034;3.742;2022-11-15T08:45:31;8.98;;;4.03;;
34019;SDS011;20895;51.034;3.742;2022-11-15T08:48:00;4.90;;;2.70;;
34019;SDS011;20895;51.034;3.742;2022-11-15T08:50:25;7.35;;;2.85;;
34019;SDS011;20895;51.034;3.742;2022-11-15T08:52:50;4.57;;;2.67;;
34019;SDS011;20895;51.034;3.742;2022-11-15T08:55:16;7.68;;;3.20;;
34019;SDS011;20895;51.034;3.742;2022-11-15T08:57:41;6.95;;;2.40;;
34019;SDS011;20895;51.034;3.742;2022-11-15T09:00:06;4.60;;;1.95;;
34019;SDS011;20895;51.034;3.742;2022-11-15T09:02:32;3.72;;;2.58;;
34019;SDS011;20895;51.034;3.742;2022-11-15T09:04:58;5.68;;;2.40;;
34019;SDS011;20895;51.034;3.742;2022-11-15T09:07:23;5.55;;;2.13;;
34019;SDS011;20895;51.034;3.742;2022-11-15T09:09:49;7.88;;;2.40;;
34019;SDS011;20895;51.034;3.742;2022-11-15T09:12:14;5.60;;;2.17;;
34019;SDS011;20895;51.034;3.742;2022-11-15T09:14:39;6.28;;;2.17;;
34019;SDS011;20895;51.034;3.742;2022-11-15T09:17:07;9.30;;;3.30;;
34019;SDS011;20895;51.034;3.742;2022-11-15T09:19:32;3.90;;;1.80;;
34019;SDS011;20895;51.034;3.742;2022-11-15T09:21:57;9.02;;;2.33;;
34019;SDS011;20895;51.034;3.742;2022-11-15T09:24:22;4.45;;;1.40;;
34019;SDS011;20895;51.034;3.742;2022-11-15T09:26:49;8.63;;;3.05;;
34019;SDS011;20895;51.034;3.742;2022-11-15T09:29:14;14.07;;;3.08;;
34019;SDS011;20895;51.034;3.742;2022-11-15T09:31:39;3.08;;;1.63;;
34019;SDS011;20895;51.034;3.742;2022-11-15T09:34:05;9.43;;;2.33;;
34019;SDS011;20895;51.034;3.742;2022-11-15T09:36:30;7.30;;;2.00;;
34019;SDS011;20895;51.034;3.742;2022-11-15T09:38:57;5.47;;;1.58;;
34019;SDS011;20895;51.034;3.742;2022-11-15T09:46:44;9.88;;;3.33;;
34019;SDS011;20895;51.034;3.742;2022-11-15T09:49:12;8.02;;;2.15;;
34019;SDS011;20895;51.034;3.742;2022-11-15T09:51:39;5.25;;;2.35;;
34019;SDS011;20895;51.034;3.742;2022-11-15T09:56:48;5.20;;;1.60;;
34019;SDS011;20895;51.034;3.742;2022-11-15T10:04:25;5.50;;;2.15;;
34019;SDS011;20895;51.034;3.742;2022-11-15T10:07:01;9.73;;;1.80;;
34019;SDS011;20895;51.034;3.742;2022-11-15T10:10:13;7.43;;;1.58;;
34019;SDS011;20895;51.034;3.742;2022-11-15T10:12:16;3.63;;;1.60;;
34019;SDS011;20895;51.034;3.742;2022-11-15T10:14:42;7.40;;;1.55;;
34019;SDS011;20895;51.034;3.742;2022-11-15T10:19:35;5.20;;;1.80;;
34019;SDS011;20895;51.034;3.742;2022-11-15T10:24:40;6.53;;;2.85;;
34019;SDS011;20895;51.034;3.742;2022-11-15T10:27:07;7.53;;;1.80;;
34019;SDS011;20895;51.034;3.742;2022-11-15T10:29:34;4.50;;;1.88;;
34019;SDS011;20895;51.034;3.742;2022-11-15T10:31:59;10.73;;;1.73;;
34019;SDS011;20895;51.034;3.742;2022-11-15T10:34:24;6.63;;;1.67;;
34019;SDS011;20895;51.034;3.742;2022-11-15T10:36:54;5.80;;;1.83;;
34019;SDS011;20895;51.034;3.742;2022-11-15T10:39:20;4.50;;;1.67;;
34019;SDS011;20895;51.034;3.742;2022-11-15T10:41:45;8.00;;;1.83;;
34019;SDS011;20895;51.034;3.742;2022-11-15T10:46:37;4.90;;;1.50;;
34019;SDS011;20895;51.034;3.742;2022-11-15T10:49:12;5.80;;;1.83;;
34019;SDS011;20895;51.034;3.742;2022-11-15T10:51:42;5.60;;;2.20;;
34019;SDS011;20895;51.034;3.742;2022-11-15T10:54:10;4.65;;;1.33;;
34019;SDS011;20895;51.034;3.742;2022-11-15T10:56:35;7.35;;;2.47;;
34019;SDS011;20895;51.034;3.742;2022-11-15T10:59:01;5.13;;;2.03;;
34019;SDS011;20895;51.034;3.742;2022-11-15T11:01:27;8.50;;;1.88;;
34019;SDS011;20895;51.034;3.742;2022-11-15T11:04:00;5.95;;;2.08;;
34019;SDS011;20895;51.034;3.742;2022-11-15T11:06:26;4.03;;;1.15;;
34019;SDS011;20895;51.034;3.742;2022-11-15T11:14:13;5.05;;;1.50;;
34019;SDS011;20895;51.034;3.742;2022-11-15T11:16:44;8.48;;;3.00;;
34019;SDS011;20895;51.034;3.742;2022-11-15T11:24:15;6.65;;;2.13;;
34019;SDS011;20895;51.034;3.742;2022-11-15T11:31:44;4.95;;;1.33;;
34019;SDS011;20895;51.034;3.742;2022-11-15T11:37:03;5.70;;;2.20;;
34019;SDS011;20895;51.034;3.742;2022-11-15T11:39:34;3.17;;;1.40;;
34019;SDS011;20895;51.034;3.742;2022-11-15T11:44:37;5.23;;;1.00;;
34019;SDS011;20895;51.034;3.742;2022-11-15T11:47:12;4.47;;;1.48;;
34019;SDS011;20895;51.034;3.742;2022-11-15T11:49:48;4.03;;;1.23;;
34019;SDS011;20895;51.034;3.742;2022-11-15T11:52:23;6.65;;;1.45;;
34019;SDS011;20895;51.034;3.742;2022-11-15T11:55:11;5.25;;;1.10;;
34019;SDS011;20895;51.034;3.742;2022-11-15T11:57:40;5.03;;;1.30;;
34019;SDS011;20895;51.034;3.742;2022-11-15T12:00:15;5.97;;;1.80;;
34019;SDS011;20895;51.034;3.742;2022-11-15T12:02:43;2.67;;;1.17;;
34019;SDS011;20895;51.034;3.742;2022-11-15T12:05:27;4.97;;;1.80;;
34019;SDS011;20895;51.034;3.742;2022-11-15T12:07:54;4.53;;;1.23;;
34019;SDS011;20895;51.034;3.742;2022-11-15T12:10:24;4.90;;;2.05;;
34019;SDS011;20895;51.034;3.742;2022-11-15T12:13:10;5.15;;;1.70;;
34019;SDS011;20895;51.034;3.742;2022-11-15T12:15:42;11.07;;;2.28;;
34019;SDS011;20895;51.034;3.742;2022-11-15T12:18:08;5.70;;;1.60;;
34019;SDS011;20895;51.034;3.742;2022-11-15T12:20:38;7.63;;;2.00;;
34019;SDS011;20895;51.034;3.742;2022-11-15T12:23:11;2.60;;;1.27;;
34019;SDS011;20895;51.034;3.742;2022-11-15T12:28:17;3.25;;;1.45;;
34019;SDS011;20895;51.034;3.742;2022-11-15T12:33:28;6.53;;;1.73;;
34019;SDS011;20895;51.034;3.742;2022-11-15T12:38:54;4.55;;;1.80;;
34019;SDS011;20895;51.034;3.742;2022-11-15T12:41:21;5.43;;;1.83;;
34019;SDS011;20895;51.034;3.742;2022-11-15T12:43:47;5.50;;;1.40;;
34019;SDS011;20895;51.034;3.742;2022-11-15T12:46:20;5.03;;;1.80;;
34019;SDS011;20895;51.034;3.742;2022-11-15T12:51:11;5.10;;;1.50;;
34019;SDS011;20895;51.034;3.742;2022-11-15T12:53:36;8.73;;;1.92;;
34019;SDS011;20895;51.034;3.742;2022-11-15T13:01:54;7.15;;;1.52;;
34019;SDS011;20895;51.034;3.742;2022-11-15T13:06:39;6.68;;;1.20;;
34019;SDS011;20895;51.034;3.742;2022-11-15T13:09:06;11.75;;;3.13;;
34019;SDS011;20895;51.034;3.742;2022-11-15T13:11:50;7.50;;;2.25;;
34019;SDS011;20895;51.034;3.742;2022-11-15T13:16:59;6.28;;;1.42;;
34019;SDS011;20895;51.034;3.742;2022-11-15T13:19:24;2.00;;;1.02;;
34019;SDS011;20895;51.034;3.742;2022-11-15T13:21:51;11.70;;;2.28;;
34019;SDS011;20895;51.034;3.742;2022-11-15T13:24:37;8.18;;;1.77;;
34019;SDS011;20895;51.034;3.742;2022-11-15T13:27:09;6.63;;;1.77;;
34019;SDS011;20895;51.034;3.742;2022-11-15T13:29:35;3.05;;;1.23;;
34019;SDS011;20895;51.034;3.742;2022-11-15T13:32:00;5.15;;;1.23;;
34019;SDS011;20895;51.034;3.742;2022-11-15T13:36:51;3.15;;;1.40;;
34019;SDS011;20895;51.034;3.742;2022-11-15T13:39:32;6.22;;;2.13;;
34019;SDS011;20895;51.034;3.742;2022-11-15T13:41:59;3.20;;;1.40;;
34019;SDS011;20895;51.034;3.742;2022-11-15T13:44:25;2.47;;;1.13;;
34019;SDS011;20895;51.034;3.742;2022-11-15T13:47:12;5.85;;;1.58;;
34019;SDS011;20895;51.034;3.742;2022-11-15T13:49:38;4.43;;;2.10;;
34019;SDS011;20895;51.034;3.742;2022-11-15T13:52:04;3.45;;;1.25;;
34019;SDS011;20895;51.034;3.742;2022-11-15T13:54:33;3.65;;;1.45;;
34019;SDS011;20895;51.034;3.742;2022-11-15T13:57:18;1.95;;;1.20;;
34019;SDS011;20895;51.034;3.742;2022-11-15T13:59:45;5.93;;;2.00;;
34019;SDS011;20895;51.034;3.742;2022-11-15T14:02:15;7.32;;;2.10;;
34019;SDS011;20895;51.034;3.742;2022-11-15T14:05:24;2.55;;;1.30;;
34019;SDS011;20895;51.034;3.742;2022-11-15T14:07:30;3.35;;;1.38;;
34019;SDS011;20895;51.034;3.742;2022-11-15T14:09:56;4.22;;;1.30;;
34019;SDS011;20895;51.034;3.742;2022-11-15T14:12:22;5.05;;;2.58;;
34019;SDS011;20895;51.034;3.742;2022-11-15T14:14:48;3.65;;;1.52;;
34019;SDS011;20895;51.034;3.742;2022-11-15T14:17:46;5.15;;;1.40;;
34019;SDS011;20895;51.034;3.742;2022-11-15T14:22:56;4.30;;;1.70;;
34019;SDS011;20895;51.034;3.742;2022-11-15T14:30:31;6.20;;;2.33;;
34019;SDS011;20895;51.034;3.742;2022-11-15T14:32:56;3.65;;;1.58;;
34019;SDS011;20895;51.034;3.742;2022-11-15T14:35:22;4.65;;;2.10;;
34019;SDS011;20895;51.034;3.742;2022-11-15T14:37:47;3.05;;;1.73;;
34019;SDS011;20895;51.034;3.742;2022-11-15T14:40:13;2.80;;;1.90;;
34019;SDS011;20895;51.034;3.742;2022-11-15T14:42:39;7.55;;;3.13;;
34019;SDS011;20895;51.034;3.742;2022-11-15T14:45:22;4.15;;;1.70;;
34019;SDS011;20895;51.034;3.742;2022-11-15T14:47:48;5.85;;;1.98;;
34019;SDS011;20895;51.034;3.742;2022-11-15T14:50:14;3.00;;;2.03;;
34019;SDS011;20895;51.034;3.742;2022-11-15T14:52:40;2.90;;;1.50;;
34019;SDS011;20895;51.034;3.742;2022-11-15T14:55:24;4.55;;;2.13;;
34019;SDS011;20895;51.034;3.742;2022-11-15T14:57:50;5.38;;;2.03;;
34019;SDS011;20895;51.034;3.742;2022-11-15T15:00:17;9.13;;;5.57;;
34019;SDS011;20895;51.034;3.742;2022-11-15T15:02:44;4.22;;;2.47;;
34019;SDS011;20895;51.034;3.742;2022-11-15T15:05:15;6.10;;;1.83;;
34019;SDS011;20895;51.034;3.742;2022-11-15T15:07:41;5.25;;;2.25;;
34019;SDS011;20895;51.034;3.742;2022-11-15T15:10:07;5.95;;;3.55;;
34019;SDS011;20895;51.034;3.742;2022-11-15T15:12:33;3.63;;;2.50;;
34019;SDS011;20895;51.034;3.742;2022-11-15T15:14:59;7.00;;;2.53;;
34019;SDS011;20895;51.034;3.742;2022-11-15T15:17:24;6.97;;;2.95;;
34019;SDS011;20895;51.034;3.742;2022-11-15T15:19:50;6.13;;;2.58;;
34019;SDS011;20895;51.034;3.742;2022-11-15T15:22:16;4.40;;;2.53;;
34019;SDS011;20895;51.034;3.742;2022-11-15T15:24:43;4.15;;;3.25;;
34019;SDS011;20895;51.034;3.742;2022-11-15T15:27:09;7.93;;;2.90;;
34019;SDS011;20895;51.034;3.742;2022-11-15T15:29:35;6.18;;;2.90;;
34019;SDS011;20895;51.034;3.742;2022-11-15T15:32:00;7.05;;;3.53;;
34019;SDS011;20895;51.034;3.742;2022-11-15T15:34:25;4.38;;;3.10;;
34019;SDS011;20895;51.034;3.742;2022-11-15T15:37:06;4.82;;;2.70;;
34019;SDS011;20895;51.034;3.742;2022-11-15T15:39:31;6.28;;;3.35;;
34019;SDS011;20895;51.034;3.742;2022-11-15T15:41:57;9.30;;;4.82;;
34019;SDS011;20895;51.034;3.742;2022-11-15T15:44:23;4.15;;;2.83;;
34019;SDS011;20895;51.034;3.742;2022-11-15T15:46:48;4.80;;;2.90;;
34019;SDS011;20895;51.034;3.742;2022-11-15T15:49:13;4.90;;;2.80;;
34019;SDS011;20895;51.034;3.742;2022-11-15T15:51:38;7.97;;;3.33;;
34019;SDS011;20895;51.034;3.742;2022-11-15T15:54:04;4.85;;;3.28;;
34019;SDS011;20895;51.034;3.742;2022-11-15T15:56:29;8.25;;;4.63;;
34019;SDS011;20895;51.034;3.742;2022-11-15T15:58:54;7.50;;;5.38;;
34019;SDS011;20895;51.034;3.742;2022-11-15T16:01:20;5.40;;;3.65;;
34019;SDS011;20895;51.034;3.742;2022-11-15T16:03:45;5.55;;;3.15;;
34019;SDS011;20895;51.034;3.742;2022-11-15T16:08:55;5.20;;;3.72;;
34019;SDS011;20895;51.034;3.742;2022-11-15T16:11:20;4.00;;;2.97;;
34019;SDS011;20895;51.034;3.742;2022-11-15T16:13:46;5.80;;;3.20;;
34019;SDS011;20895;51.034;3.742;2022-11-15T16:16:12;4.32;;;3.30;;
34019;SDS011;20895;51.034;3.742;2022-11-15T16:18:38;3.70;;;2.97;;
34019;SDS011;20895;51.034;3.742;2022-11-15T16:21:03;5.63;;;3.42;;
34019;SDS011;20895;51.034;3.742;2022-11-15T16:23:28;3.35;;;2.42;;
34019;SDS011;20895;51.034;3.742;2022-11-15T16:25:54;4.68;;;3.28;;
34019;SDS011;20895;51.034;3.742;2022-11-15T16:30:45;5.38;;;2.95;;